Terminal Aerodrome Forecast
Issued by NWS

Home | Current Version | Previous Version | Text Only | Print | Product List | Glossary Off
Versions: 1 2 3 4 5 6 7 8 9 10 11 12 13 14 15 16 17 18 19 20 21 22 23 24 25 26 27 28 29

000
FTUS43 KLOT 221745
TAFORD
TAF
KORD 221745Z 2218/2324 22015G22KT P6SM SCT028 BKN035 BKN250
     FM230200 20012KT P6SM BKN025 BKN050
     FM230600 22012KT P6SM -SHRA SCT010 BKN020 BKN050
      TEMPO 2306/2309 4SM -TSRA BKN015CB BKN050
     FM231100 36011KT P6SM BKN015 BKN050
     FM231400 34010KT P6SM SCT020 BKN035
     FM231800 32011G18KT P6SM SCT035 BKN200=

USA.gov is the U.S. government's official web portal to all federal, state and local government web resources and services.